CDT,Max TemperatureF,Mean TemperatureF,Min TemperatureF,Max Dew PointF,MeanDew PointF,Min DewpointF,Max Humidity, Mean Humidity, Min Humidity, Max Sea Level PressureIn, Mean Sea Level PressureIn, Min Sea Level PressureIn, Max VisibilityMiles, Mean VisibilityMiles, Min VisibilityMiles, Max Wind SpeedMPH, Mean Wind SpeedMPH, Max Gust SpeedMPH,PrecipitationIn, CloudCover, Events, WindDirDegrees
2013-5-1,49,42,34,40,34,29,93,85,59,30.48,30.24,29.92,10,8,2,36,26,44,0.16,8,Rain-Snow-Thunderstorm,15
2013-5-2,54,45,37,32,27,21,81,56,29,30.62,30.53,30.43,10,10,10,23,14,36,0.00,4,,359
2013-5-3,57,42,28,31,24,17,87,52,25,30.42,30.22,30.08,10,10,7,23,7,29,0.00,1,,358
2013-5-4,56,44,31,34,25,20,72,52,29,30.19,30.11,30.08,10,10,10,31,15,38,0.00,5,,357
2013-5-5,64,50,37,39,35,32,77,57,33,30.21,30.16,30.10,10,10,7,17,10,22,0.00,3,,12
2013-5-6,70,51,33,50,38,32,97,62,26,30.16,30.10,30.03,10,8,0,9,5,17,0.00,2,Fog,141
2013-5-7,66,58,51,56,51,35,92,76,50,30.05,29.99,29.90,10,10,5,17,10,24,0.05,6,Rain-Thunderstorm,137
2013-5-8,71,62,53,57,55,52,100,75,53,29.96,29.92,29.90,10,9,3,12,7,,0.00,1,Thunderstorm,75
2013-5-9,62,56,50,54,51,46,100,84,68,30.09,30.02,29.91,10,9,0,22,10,29,0.00,6,Fog-Rain,5
2013-5-10,73,58,44,52,43,36,100,60,25,30.14,30.10,30.05,10,8,4,15,7,23,0.00,2,,336
2013-5-11,66,55,44,45,30,21,67,39,18,30.35,30.26,30.12,10,10,10,25,12,33,0.00,0,,8
2013-5-12,73,56,39,45,35,27,72,48,29,30.25,30.15,30.05,10,10,10,22,9,30,0.00,1,,143
2013-5-13,93,70,46,54,44,37,93,49,14,30.07,29.98,29.90,10,10,10,21,10,29,0.00,0,,193
2013-5-14,98,80,62,55,48,37,73,40,13,29.90,29.80,29.70,10,10,10,18,9,28,0.01,0,Rain-Thunderstorm,202
2013-5-15,84,70,55,57,49,43,73,49,29,29.91,29.84,29.79,10,10,10,26,14,34,0.00,0,,80
2013-5-16,82,68,55,59,55,50,100,67,35,29.86,29.83,29.77,10,9,4,23,9,34,0.00,1,Rain-Thunderstorm,161
2013-5-17,86,68,51,61,55,48,94,60,31,29.90,29.85,29.79,10,10,10,21,8,29,0.00,0,,169
2013-5-18,82,73,62,66,62,52,94,74,51,29.86,29.77,29.56,10,8,2,32,13,37,0.16,5,Rain-Thunderstorm,148
2013-5-19,77,68,59,61,54,46,88,71,44,29.75,29.64,29.57,10,10,10,25,9,36,0.00,5,Thunderstorm,339
2013-5-20,71,63,55,57,50,43,94,68,38,29.78,29.69,29.63,10,10,5,26,16,36,0.03,7,Rain,277
2013-5-21,64,57,50,48,44,41,82,64,42,29.85,29.80,29.77,10,10,10,30,15,39,0.00,4,,306
2013-5-22,71,60,48,48,45,43,87,65,43,30.07,29.91,29.83,10,10,10,21,12,25,0.00,5,,346
2013-5-23,69,58,48,50,47,45,93,69,43,30.20,30.16,30.07,10,10,7,21,12,25,0.00,4,,65
2013-5-24,77,66,55,64,56,48,88,74,56,30.20,30.10,29.97,10,10,7,28,17,37,0.00,5,Rain-Thunderstorm,152
2013-5-25,89,74,60,66,59,55,88,61,31,30.10,29.96,29.83,10,10,7,28,18,32,0.01,3,Rain-Thunderstorm,146
2013-5-26,91,78,64,66,63,59,94,64,34,29.90,29.81,29.73,10,10,10,30,17,39,0.00,1,,159
2013-5-27,82,71,60,68,63,57,94,78,54,29.79,29.71,29.62,10,9,2,26,16,40,0.69,5,Rain-Thunderstorm,95
2013-5-28,79,69,59,66,61,55,100,77,42,29.76,29.70,29.60,10,9,3,21,11,25,0.00,2,,67
2013-5-29,84,71,58,68,62,53,95,79,47,29.68,29.56,29.42,10,8,2,37,14,51,1.36,4,Rain-Thunderstorm,123
2013-5-30,77,67,57,56,51,42,95,65,31,29.68,29.59,29.54,10,10,7,18,11,28,0.04,2,Rain-Thunderstorm,225
2013-5-31,79,66,52,49,43,34,82,47,20,29.82,29.73,29.67,10,10,10,26,15,36,0.00,0,,284